sensor_id;sensor_type;location;lat;lon;timestamp;P1;durP1;ratioP1;P2;durP2;ratioP2
14076;SDS011;7114;51.100;13.998;2023-06-01T00:01:07;6.70;;;1.90;;
14076;SDS011;7114;51.100;13.998;2023-06-01T00:03:37;6.90;;;2.08;;
14076;SDS011;7114;51.100;13.998;2023-06-01T00:06:04;6.53;;;2.03;;
14076;SDS011;7114;51.100;13.998;2023-06-01T00:08:31;7.23;;;2.20;;
14076;SDS011;7114;51.100;13.998;2023-06-01T00:10:58;7.93;;;2.60;;
14076;SDS011;7114;51.100;13.998;2023-06-01T00:13:25;6.90;;;2.45;;
14076;SDS011;7114;51.100;13.998;2023-06-01T00:15:51;7.55;;;2.30;;
14076;SDS011;7114;51.100;13.998;2023-06-01T00:18:18;7.07;;;2.60;;
14076;SDS011;7114;51.100;13.998;2023-06-01T00:20:44;6.20;;;2.20;;
14076;SDS011;7114;51.100;13.998;2023-06-01T00:23:11;6.20;;;2.00;;
14076;SDS011;7114;51.100;13.998;2023-06-01T00:25:37;7.00;;;2.13;;
14076;SDS011;7114;51.100;13.998;2023-06-01T00:28:05;6.60;;;2.30;;
14076;SDS011;7114;51.100;13.998;2023-06-01T00:30:31;6.20;;;2.28;;
14076;SDS011;7114;51.100;13.998;2023-06-01T00:32:57;7.10;;;2.40;;
14076;SDS011;7114;51.100;13.998;2023-06-01T00:35:23;6.80;;;2.35;;
14076;SDS011;7114;51.100;13.998;2023-06-01T00:37:50;7.40;;;2.55;;
14076;SDS011;7114;51.100;13.998;2023-06-01T00:40:16;6.65;;;2.40;;
14076;SDS011;7114;51.100;13.998;2023-06-01T00:42:42;7.43;;;2.38;;
14076;SDS011;7114;51.100;13.998;2023-06-01T00:45:10;6.70;;;2.37;;
14076;SDS011;7114;51.100;13.998;2023-06-01T00:47:38;6.35;;;2.00;;
14076;SDS011;7114;51.100;13.998;2023-06-01T00:50:06;7.40;;;2.33;;
14076;SDS011;7114;51.100;13.998;2023-06-01T00:52:32;6.10;;;2.10;;
14076;SDS011;7114;51.100;13.998;2023-06-01T00:54:59;6.57;;;2.25;;
14076;SDS011;7114;51.100;13.998;2023-06-01T00:57:25;7.03;;;2.00;;
14076;SDS011;7114;51.100;13.998;2023-06-01T00:59:52;6.60;;;2.33;;
14076;SDS011;7114;51.100;13.998;2023-06-01T01:02:20;9.23;;;2.45;;
14076;SDS011;7114;51.100;13.998;2023-06-01T01:04:48;7.95;;;2.17;;
14076;SDS011;7114;51.100;13.998;2023-06-01T01:07:19;5.68;;;2.15;;
14076;SDS011;7114;51.100;13.998;2023-06-01T01:09:49;6.27;;;2.00;;
14076;SDS011;7114;51.100;13.998;2023-06-01T01:12:21;8.18;;;2.45;;
14076;SDS011;7114;51.100;13.998;2023-06-01T01:14:52;6.82;;;2.28;;
14076;SDS011;7114;51.100;13.998;2023-06-01T01:17:26;6.05;;;2.15;;
14076;SDS011;7114;51.100;13.998;2023-06-01T01:19:58;6.93;;;2.25;;
14076;SDS011;7114;51.100;13.998;2023-06-01T01:22:29;7.23;;;2.40;;
14076;SDS011;7114;51.100;13.998;2023-06-01T01:25:11;6.65;;;2.08;;
14076;SDS011;7114;51.100;13.998;2023-06-01T01:27:53;7.53;;;2.50;;
14076;SDS011;7114;51.100;13.998;2023-06-01T01:30:32;6.55;;;2.33;;
14076;SDS011;7114;51.100;13.998;2023-06-01T01:33:02;6.97;;;2.10;;
14076;SDS011;7114;51.100;13.998;2023-06-01T01:35:29;7.43;;;2.30;;
14076;SDS011;7114;51.100;13.998;2023-06-01T01:37:55;7.57;;;2.28;;
14076;SDS011;7114;51.100;13.998;2023-06-01T01:40:22;6.47;;;2.20;;
14076;SDS011;7114;51.100;13.998;2023-06-01T01:42:48;6.00;;;2.33;;
14076;SDS011;7114;51.100;13.998;2023-06-01T01:45:16;8.50;;;2.88;;
14076;SDS011;7114;51.100;13.998;2023-06-01T01:47:46;7.23;;;2.73;;
14076;SDS011;7114;51.100;13.998;2023-06-01T01:50:15;6.40;;;2.47;;
14076;SDS011;7114;51.100;13.998;2023-06-01T01:52:42;7.32;;;2.63;;
14076;SDS011;7114;51.100;13.998;2023-06-01T01:55:09;8.07;;;2.33;;
14076;SDS011;7114;51.100;13.998;2023-06-01T01:57:36;6.85;;;2.47;;
14076;SDS011;7114;51.100;13.998;2023-06-01T02:00:02;6.93;;;2.30;;
14076;SDS011;7114;51.100;13.998;2023-06-01T02:02:30;7.75;;;2.67;;
14076;SDS011;7114;51.100;13.998;2023-06-01T02:04:58;6.88;;;2.20;;
14076;SDS011;7114;51.100;13.998;2023-06-01T02:07:25;7.45;;;2.38;;
14076;SDS011;7114;51.100;13.998;2023-06-01T02:09:51;7.00;;;2.40;;
14076;SDS011;7114;51.100;13.998;2023-06-01T02:12:17;8.20;;;2.70;;
14076;SDS011;7114;51.100;13.998;2023-06-01T02:14:43;7.95;;;2.70;;
14076;SDS011;7114;51.100;13.998;2023-06-01T02:17:10;7.78;;;3.08;;
14076;SDS011;7114;51.100;13.998;2023-06-01T02:19:40;9.05;;;2.97;;
14076;SDS011;7114;51.100;13.998;2023-06-01T02:22:08;7.00;;;2.60;;
14076;SDS011;7114;51.100;13.998;2023-06-01T02:24:34;6.63;;;2.93;;
14076;SDS011;7114;51.100;13.998;2023-06-01T02:27:00;7.40;;;2.60;;
14076;SDS011;7114;51.100;13.998;2023-06-01T02:29:27;7.22;;;2.78;;
14076;SDS011;7114;51.100;13.998;2023-06-01T02:31:53;6.97;;;2.85;;
14076;SDS011;7114;51.100;13.998;2023-06-01T02:34:20;9.30;;;3.10;;
14076;SDS011;7114;51.100;13.998;2023-06-01T02:36:46;7.23;;;2.83;;
14076;SDS011;7114;51.100;13.998;2023-06-01T02:39:14;7.78;;;3.13;;
14076;SDS011;7114;51.100;13.998;2023-06-01T02:41:42;6.60;;;2.78;;
14076;SDS011;7114;51.100;13.998;2023-06-01T02:44:08;9.52;;;2.80;;
14076;SDS011;7114;51.100;13.998;2023-06-01T02:46:34;7.43;;;2.70;;
14076;SDS011;7114;51.100;13.998;2023-06-01T02:49:00;7.57;;;2.73;;
14076;SDS011;7114;51.100;13.998;2023-06-01T02:51:28;8.30;;;2.72;;
14076;SDS011;7114;51.100;13.998;2023-06-01T02:53:55;7.50;;;2.72;;
14076;SDS011;7114;51.100;13.998;2023-06-01T02:56:23;10.20;;;2.80;;
14076;SDS011;7114;51.100;13.998;2023-06-01T02:58:50;7.93;;;2.80;;
14076;SDS011;7114;51.100;13.998;2023-06-01T03:01:16;6.97;;;2.40;;
14076;SDS011;7114;51.100;13.998;2023-06-01T03:03:42;8.43;;;3.10;;
14076;SDS011;7114;51.100;13.998;2023-06-01T03:06:09;7.80;;;2.60;;
14076;SDS011;7114;51.100;13.998;2023-06-01T03:08:38;7.53;;;2.72;;
14076;SDS011;7114;51.100;13.998;2023-06-01T03:11:04;9.05;;;3.00;;
14076;SDS011;7114;51.100;13.998;2023-06-01T03:13:32;7.80;;;2.77;;
14076;SDS011;7114;51.100;13.998;2023-06-01T03:15:58;10.05;;;2.80;;
14076;SDS011;7114;51.100;13.998;2023-06-01T03:18:25;7.40;;;2.80;;
14076;SDS011;7114;51.100;13.998;2023-06-01T03:20:51;7.80;;;2.95;;
14076;SDS011;7114;51.100;13.998;2023-06-01T03:23:17;8.50;;;2.80;;
14076;SDS011;7114;51.100;13.998;2023-06-01T03:25:44;7.33;;;2.60;;
14076;SDS011;7114;51.100;13.998;2023-06-01T03:28:10;8.30;;;3.00;;
14076;SDS011;7114;51.100;13.998;2023-06-01T03:30:37;7.90;;;3.00;;
14076;SDS011;7114;51.100;13.998;2023-06-01T03:33:04;6.70;;;2.80;;
14076;SDS011;7114;51.100;13.998;2023-06-01T03:35:31;7.28;;;2.78;;
14076;SDS011;7114;51.100;13.998;2023-06-01T03:37:57;7.77;;;2.80;;
14076;SDS011;7114;51.100;13.998;2023-06-01T03:40:23;8.82;;;3.00;;
14076;SDS011;7114;51.100;13.998;2023-06-01T03:42:49;8.93;;;2.97;;
14076;SDS011;7114;51.100;13.998;2023-06-01T03:45:16;9.68;;;2.78;;
14076;SDS011;7114;51.100;13.998;2023-06-01T03:47:43;10.70;;;2.97;;
14076;SDS011;7114;51.100;13.998;2023-06-01T03:50:10;9.57;;;3.00;;
14076;SDS011;7114;51.100;13.998;2023-06-01T03:52:36;7.30;;;2.70;;
14076;SDS011;7114;51.100;13.998;2023-06-01T03:55:04;7.32;;;3.17;;
14076;SDS011;7114;51.100;13.998;2023-06-01T03:57:33;9.18;;;2.95;;
14076;SDS011;7114;51.100;13.998;2023-06-01T04:00:00;11.32;;;3.33;;
14076;SDS011;7114;51.100;13.998;2023-06-01T04:02:26;8.43;;;2.87;;
14076;SDS011;7114;51.100;13.998;2023-06-01T04:04:54;9.15;;;3.17;;
14076;SDS011;7114;51.100;13.998;2023-06-01T04:07:21;7.43;;;2.97;;
14076;SDS011;7114;51.100;13.998;2023-06-01T04:09:47;8.00;;;2.78;;
14076;SDS011;7114;51.100;13.998;2023-06-01T04:12:13;7.72;;;3.20;;
14076;SDS011;7114;51.100;13.998;2023-06-01T04:14:40;7.93;;;2.80;;
14076;SDS011;7114;51.100;13.998;2023-06-01T04:17:06;8.23;;;3.10;;
14076;SDS011;7114;51.100;13.998;2023-06-01T04:19:33;7.40;;;3.08;;
14076;SDS011;7114;51.100;13.998;2023-06-01T04:22:01;9.02;;;3.20;;
14076;SDS011;7114;51.100;13.998;2023-06-01T04:24:28;8.05;;;3.10;;
14076;SDS011;7114;51.100;13.998;2023-06-01T04:26:54;7.50;;;2.90;;
14076;SDS011;7114;51.100;13.998;2023-06-01T04:29:21;9.02;;;3.13;;
14076;SDS011;7114;51.100;13.998;2023-06-01T04:31:49;6.38;;;2.72;;
14076;SDS011;7114;51.100;13.998;2023-06-01T04:34:16;6.93;;;2.80;;
14076;SDS011;7114;51.100;13.998;2023-06-01T04:36:43;7.70;;;3.03;;
14076;SDS011;7114;51.100;13.998;2023-06-01T04:39:10;6.83;;;2.77;;
14076;SDS011;7114;51.100;13.998;2023-06-01T04:41:37;7.45;;;2.83;;
14076;SDS011;7114;51.100;13.998;2023-06-01T04:44:03;9.57;;;3.08;;
14076;SDS011;7114;51.100;13.998;2023-06-01T04:46:32;8.05;;;2.97;;
14076;SDS011;7114;51.100;13.998;2023-06-01T04:49:00;9.43;;;2.97;;
14076;SDS011;7114;51.100;13.998;2023-06-01T04:51:26;9.67;;;2.77;;
14076;SDS011;7114;51.100;13.998;2023-06-01T04:53:54;9.10;;;2.70;;
14076;SDS011;7114;51.100;13.998;2023-06-01T04:56:22;8.30;;;3.42;;
14076;SDS011;7114;51.100;13.998;2023-06-01T04:58:50;8.57;;;3.35;;
14076;SDS011;7114;51.100;13.998;2023-06-01T05:01:16;8.30;;;2.95;;
14076;SDS011;7114;51.100;13.998;2023-06-01T05:03:42;8.20;;;3.30;;
14076;SDS011;7114;51.100;13.998;2023-06-01T05:06:09;8.63;;;2.80;;
14076;SDS011;7114;51.100;13.998;2023-06-01T05:08:37;8.45;;;3.30;;
14076;SDS011;7114;51.100;13.998;2023-06-01T05:11:03;8.35;;;3.20;;
14076;SDS011;7114;51.100;13.998;2023-06-01T05:13:31;7.95;;;3.10;;
14076;SDS011;7114;51.100;13.998;2023-06-01T05:15:57;7.10;;;3.03;;
14076;SDS011;7114;51.100;13.998;2023-06-01T05:18:24;7.30;;;3.30;;
14076;SDS011;7114;51.100;13.998;2023-06-01T05:20:50;7.25;;;3.05;;
14076;SDS011;7114;51.100;13.998;2023-06-01T05:23:16;7.95;;;2.72;;
14076;SDS011;7114;51.100;13.998;2023-06-01T05:25:42;8.05;;;3.10;;
14076;SDS011;7114;51.100;13.998;2023-06-01T05:28:09;9.50;;;2.90;;
14076;SDS011;7114;51.100;13.998;2023-06-01T05:30:37;7.22;;;2.70;;
14076;SDS011;7114;51.100;13.998;2023-06-01T05:33:03;7.53;;;3.08;;
14076;SDS011;7114;51.100;13.998;2023-06-01T05:35:29;7.95;;;2.78;;
14076;SDS011;7114;51.100;13.998;2023-06-01T05:37:55;6.75;;;2.40;;
14076;SDS011;7114;51.100;13.998;2023-06-01T05:40:22;7.70;;;2.70;;
14076;SDS011;7114;51.100;13.998;2023-06-01T05:42:48;7.55;;;2.58;;
14076;SDS011;7114;51.100;13.998;2023-06-01T05:45:14;7.70;;;2.40;;
14076;SDS011;7114;51.100;13.998;2023-06-01T05:47:42;6.90;;;2.50;;
14076;SDS011;7114;51.100;13.998;2023-06-01T05:50:09;6.90;;;2.25;;
14076;SDS011;7114;51.100;13.998;2023-06-01T05:52:35;5.90;;;2.10;;
14076;SDS011;7114;51.100;13.998;2023-06-01T05:55:02;7.45;;;2.63;;
14076;SDS011;7114;51.100;13.998;2023-06-01T05:57:28;6.28;;;2.22;;
14076;SDS011;7114;51.100;13.998;2023-06-01T05:59:55;6.82;;;2.30;;
14076;SDS011;7114;51.100;13.998;2023-06-01T06:02:21;6.70;;;2.28;;
14076;SDS011;7114;51.100;13.998;2023-06-01T06:04:49;8.23;;;2.40;;
14076;SDS011;7114;51.100;13.998;2023-06-01T06:07:15;7.38;;;2.20;;
14076;SDS011;7114;51.100;13.998;2023-06-01T06:09:41;7.68;;;2.60;;
14076;SDS011;7114;51.100;13.998;2023-06-01T06:12:08;6.85;;;2.13;;
14076;SDS011;7114;51.100;13.998;2023-06-01T06:14:34;6.40;;;1.90;;
14076;SDS011;7114;51.100;13.998;2023-06-01T06:17:00;8.40;;;2.27;;
14076;SDS011;7114;51.100;13.998;2023-06-01T06:19:27;8.38;;;1.92;;
14076;SDS011;7114;51.100;13.998;2023-06-01T06:21:55;9.38;;;2.15;;
14076;SDS011;7114;51.100;13.998;2023-06-01T06:24:22;6.22;;;1.98;;
14076;SDS011;7114;51.100;13.998;2023-06-01T06:26:48;6.32;;;2.13;;
14076;SDS011;7114;51.100;13.998;2023-06-01T06:29:14;6.33;;;2.10;;
14076;SDS011;7114;51.100;13.998;2023-06-01T06:31:41;5.43;;;1.98;;
14076;SDS011;7114;51.100;13.998;2023-06-01T06:34:08;6.63;;;1.80;;
14076;SDS011;7114;51.100;13.998;2023-06-01T06:36:34;7.10;;;2.15;;
14076;SDS011;7114;51.100;13.998;2023-06-01T06:39:02;7.00;;;2.03;;
14076;SDS011;7114;51.100;13.998;2023-06-01T06:41:29;8.07;;;2.43;;
14076;SDS011;7114;51.100;13.998;2023-06-01T06:43:55;6.47;;;2.15;;
14076;SDS011;7114;51.100;13.998;2023-06-01T06:46:22;6.50;;;2.15;;
14076;SDS011;7114;51.100;13.998;2023-06-01T06:48:48;7.80;;;2.05;;
14076;SDS011;7114;51.100;13.998;2023-06-01T06:51:16;6.07;;;2.65;;
14076;SDS011;7114;51.100;13.998;2023-06-01T06:53:42;5.80;;;2.10;;
14076;SDS011;7114;51.100;13.998;2023-06-01T06:56:10;6.30;;;2.10;;
14076;SDS011;7114;51.100;13.998;2023-06-01T06:58:36;7.35;;;2.30;;
14076;SDS011;7114;51.100;13.998;2023-06-01T07:01:02;6.32;;;2.10;;
14076;SDS011;7114;51.100;13.998;2023-06-01T07:03:29;6.43;;;2.47;;
14076;SDS011;7114;51.100;13.998;2023-06-01T07:05:56;6.60;;;2.60;;
14076;SDS011;7114;51.100;13.998;2023-06-01T07:08:22;7.53;;;2.67;;
14076;SDS011;7114;51.100;13.998;2023-06-01T07:10:49;8.55;;;3.70;;
14076;SDS011;7114;51.100;13.998;2023-06-01T07:13:16;7.18;;;3.45;;
14076;SDS011;7114;51.100;13.998;2023-06-01T07:15:42;7.03;;;2.97;;
14076;SDS011;7114;51.100;13.998;2023-06-01T07:18:09;7.18;;;2.53;;
14076;SDS011;7114;51.100;13.998;2023-06-01T07:20:35;5.97;;;2.63;;
14076;SDS011;7114;51.100;13.998;2023-06-01T07:23:01;6.25;;;2.55;;
14076;SDS011;7114;51.100;13.998;2023-06-01T07:25:27;7.57;;;3.30;;
14076;SDS011;7114;51.100;13.998;2023-06-01T07:27:54;6.57;;;2.60;;
14076;SDS011;7114;51.100;13.998;2023-06-01T07:30:22;6.78;;;3.08;;
14076;SDS011;7114;51.100;13.998;2023-06-01T07:32:48;6.23;;;2.50;;
14076;SDS011;7114;51.100;13.998;2023-06-01T07:35:15;6.28;;;2.50;;
14076;SDS011;7114;51.100;13.998;2023-06-01T07:37:41;7.82;;;2.45;;
14076;SDS011;7114;51.100;13.998;2023-06-01T07:40:08;6.82;;;2.50;;
14076;SDS011;7114;51.100;13.998;2023-06-01T07:42:34;6.43;;;2.88;;
14076;SDS011;7114;51.100;13.998;2023-06-01T07:45:00;6.00;;;2.70;;
14076;SDS011;7114;51.100;13.998;2023-06-01T07:47:28;8.70;;;2.70;;
14076;SDS011;7114;51.100;13.998;2023-06-01T07:49:55;5.88;;;2.60;;
14076;SDS011;7114;51.100;13.998;2023-06-01T07:52:21;6.30;;;2.30;;
14076;SDS011;7114;51.100;13.998;2023-06-01T07:54:48;6.00;;;3.00;;
14076;SDS011;7114;51.100;13.998;2023-06-01T07:57:14;6.13;;;2.60;;
14076;SDS011;7114;51.100;13.998;2023-06-01T07:59:41;6.83;;;2.90;;
14076;SDS011;7114;51.100;13.998;2023-06-01T08:02:07;8.38;;;2.90;;
14076;SDS011;7114;51.100;13.998;2023-06-01T08:04:37;6.15;;;2.50;;
14076;SDS011;7114;51.100;13.998;2023-06-01T08:07:03;7.05;;;2.90;;
14076;SDS011;7114;51.100;13.998;2023-06-01T08:09:31;7.97;;;2.97;;
14076;SDS011;7114;51.100;13.998;2023-06-01T08:11:57;6.03;;;2.40;;
14076;SDS011;7114;51.100;13.998;2023-06-01T08:14:24;5.68;;;2.50;;
14076;SDS011;7114;51.100;13.998;2023-06-01T08:16:50;6.13;;;2.60;;
14076;SDS011;7114;51.100;13.998;2023-06-01T08:19:17;7.68;;;2.70;;
14076;SDS011;7114;51.100;13.998;2023-06-01T08:21:45;6.97;;;2.60;;
14076;SDS011;7114;51.100;13.998;2023-06-01T08:24:11;5.97;;;2.60;;
14076;SDS011;7114;51.100;13.998;2023-06-01T08:26:38;5.40;;;2.83;;
14076;SDS011;7114;51.100;13.998;2023-06-01T08:29:04;6.32;;;2.63;;
14076;SDS011;7114;51.100;13.998;2023-06-01T08:31:30;6.63;;;2.70;;
14076;SDS011;7114;51.100;13.998;2023-06-01T08:33:57;6.78;;;2.70;;
14076;SDS011;7114;51.100;13.998;2023-06-01T08:36:23;7.32;;;3.20;;
14076;SDS011;7114;51.100;13.998;2023-06-01T08:38:53;6.13;;;2.60;;
14076;SDS011;7114;51.100;13.998;2023-06-01T08:41:23;5.90;;;2.92;;
14076;SDS011;7114;51.100;13.998;2023-06-01T08:43:53;7.22;;;3.25;;
14076;SDS011;7114;51.100;13.998;2023-06-01T08:46:20;6.40;;;2.75;;
14076;SDS011;7114;51.100;13.998;2023-06-01T08:48:48;6.97;;;2.90;;
14076;SDS011;7114;51.100;13.998;2023-06-01T08:51:15;6.87;;;2.70;;
14076;SDS011;7114;51.100;13.998;2023-06-01T08:53:42;6.23;;;2.77;;
14076;SDS011;7114;51.100;13.998;2023-06-01T08:56:10;7.05;;;3.30;;
14076;SDS011;7114;51.100;13.998;2023-06-01T08:58:38;5.72;;;2.88;;
14076;SDS011;7114;51.100;13.998;2023-06-01T09:01:06;6.68;;;3.45;;
14076;SDS011;7114;51.100;13.998;2023-06-01T09:03:32;7.90;;;3.40;;
14076;SDS011;7114;51.100;13.998;2023-06-01T09:05:58;6.57;;;3.30;;
14076;SDS011;7114;51.100;13.998;2023-06-01T09:08:24;7.05;;;3.50;;
14076;SDS011;7114;51.100;13.998;2023-06-01T09:10:51;7.30;;;3.40;;
14076;SDS011;7114;51.100;13.998;2023-06-01T09:13:31;6.53;;;3.10;;
14076;SDS011;7114;51.100;13.998;2023-06-01T09:15:57;5.30;;;2.83;;
14076;SDS011;7114;51.100;13.998;2023-06-01T09:18:24;7.80;;;3.00;;
14076;SDS011;7114;51.100;13.998;2023-06-01T09:20:50;5.88;;;3.03;;
14076;SDS011;7114;51.100;13.998;2023-06-01T09:23:24;7.38;;;3.63;;
14076;SDS011;7114;51.100;13.998;2023-06-01T09:26:03;5.88;;;3.13;;
14076;SDS011;7114;51.100;13.998;2023-06-01T09:28:31;7.32;;;2.92;;
14076;SDS011;7114;51.100;13.998;2023-06-01T09:31:34;6.17;;;2.83;;
14076;SDS011;7114;51.100;13.998;2023-06-01T09:34:05;5.75;;;3.05;;
14076;SDS011;7114;51.100;13.998;2023-06-01T09:36:32;6.95;;;3.13;;
14076;SDS011;7114;51.100;13.998;2023-06-01T09:39:02;5.85;;;2.90;;
14076;SDS011;7114;51.100;13.998;2023-06-01T09:41:43;8.45;;;3.63;;
14076;SDS011;7114;51.100;13.998;2023-06-01T09:44:11;6.37;;;3.10;;
14076;SDS011;7114;51.100;13.998;2023-06-01T09:46:45;6.00;;;2.65;;
14076;SDS011;7114;51.100;13.998;2023-06-01T09:49:17;6.30;;;3.20;;
14076;SDS011;7114;51.100;13.998;2023-06-01T09:51:45;7.57;;;2.85;;
14076;SDS011;7114;51.100;13.998;2023-06-01T09:54:20;5.40;;;2.97;;
14076;SDS011;7114;51.100;13.998;2023-06-01T09:56:48;7.43;;;3.80;;
14076;SDS011;7114;51.100;13.998;2023-06-01T09:59:16;6.23;;;2.97;;
14076;SDS011;7114;51.100;13.998;2023-06-01T10:01:42;6.45;;;3.00;;
14076;SDS011;7114;51.100;13.998;2023-06-01T10:04:09;7.00;;;3.10;;
14076;SDS011;7114;51.100;13.998;2023-06-01T10:06:38;5.70;;;2.72;;
14076;SDS011;7114;51.100;13.998;2023-06-01T10:09:05;7.47;;;3.20;;
14076;SDS011;7114;51.100;13.998;2023-06-01T10:11:32;6.67;;;2.60;;
14076;SDS011;7114;51.100;13.998;2023-06-01T10:13:59;5.77;;;2.67;;
14076;SDS011;7114;51.100;13.998;2023-06-01T10:16:27;7.18;;;3.45;;
14076;SDS011;7114;51.100;13.998;2023-06-01T10:18:54;6.47;;;3.13;;
14076;SDS011;7114;51.100;13.998;2023-06-01T10:21:20;6.82;;;3.20;;
14076;SDS011;7114;51.100;13.998;2023-06-01T10:23:47;5.70;;;2.85;;
14076;SDS011;7114;51.100;13.998;2023-06-01T10:26:14;6.37;;;3.10;;
14076;SDS011;7114;51.100;13.998;2023-06-01T10:28:41;5.75;;;2.88;;
14076;SDS011;7114;51.100;13.998;2023-06-01T10:34:03;5.88;;;3.00;;
14076;SDS011;7114;51.100;13.998;2023-06-01T10:39:33;6.23;;;3.23;;
14076;SDS011;7114;51.100;13.998;2023-06-01T10:45:00;6.57;;;3.35;;
14076;SDS011;7114;51.100;13.998;2023-06-01T10:50:13;6.00;;;2.78;;
14076;SDS011;7114;51.100;13.998;2023-06-01T10:52:41;7.57;;;3.33;;
14076;SDS011;7114;51.100;13.998;2023-06-01T10:55:20;6.90;;;3.10;;
14076;SDS011;7114;51.100;13.998;2023-06-01T10:57:48;7.45;;;3.38;;
14076;SDS011;7114;51.100;13.998;2023-06-01T11:00:14;6.47;;;3.15;;
14076;SDS011;7114;51.100;13.998;2023-06-01T11:02:42;6.95;;;2.95;;
14076;SDS011;7114;51.100;13.998;2023-06-01T11:08:23;6.27;;;3.03;;
14076;SDS011;7114;51.100;13.998;2023-06-01T11:11:13;6.47;;;3.10;;
14076;SDS011;7114;51.100;13.998;2023-06-01T11:13:39;6.88;;;2.63;;
14076;SDS011;7114;51.100;13.998;2023-06-01T11:18:56;6.25;;;3.20;;
14076;SDS011;7114;51.100;13.998;2023-06-01T11:21:24;6.32;;;3.42;;
14076;SDS011;7114;51.100;13.998;2023-06-01T11:23:51;6.33;;;3.40;;
14076;SDS011;7114;51.100;13.998;2023-06-01T11:26:19;6.75;;;3.10;;
14076;SDS011;7114;51.100;13.998;2023-06-01T11:28:46;6.50;;;3.20;;
14076;SDS011;7114;51.100;13.998;2023-06-01T11:31:14;7.30;;;3.13;;
14076;SDS011;7114;51.100;13.998;2023-06-01T11:33:45;6.45;;;3.00;;
14076;SDS011;7114;51.100;13.998;2023-06-01T11:36:19;6.03;;;2.60;;
14076;SDS011;7114;51.100;13.998;2023-06-01T11:38:48;7.00;;;3.30;;
14076;SDS011;7114;51.100;13.998;2023-06-01T11:41:15;6.50;;;3.20;;
14076;SDS011;7114;51.100;13.998;2023-06-01T11:43:41;6.93;;;3.22;;
14076;SDS011;7114;51.100;13.998;2023-06-01T11:46:08;6.20;;;3.22;;
14076;SDS011;7114;51.100;13.998;2023-06-01T11:48:35;6.68;;;3.20;;
14076;SDS011;7114;51.100;13.998;2023-06-01T11:51:02;7.20;;;3.27;;
14076;SDS011;7114;51.100;13.998;2023-06-01T11:53:30;6.57;;;3.05;;
14076;SDS011;7114;51.100;13.998;2023-06-01T11:55:58;6.72;;;3.03;;
14076;SDS011;7114;51.100;13.998;2023-06-01T11:58:24;6.35;;;2.67;;
14076;SDS011;7114;51.100;13.998;2023-06-01T12:00:52;6.18;;;3.00;;
14076;SDS011;7114;51.100;13.998;2023-06-01T12:03:18;7.40;;;3.20;;
14076;SDS011;7114;51.100;13.998;2023-06-01T12:05:45;6.90;;;2.97;;
14076;SDS011;7114;51.100;13.998;2023-06-01T12:08:13;5.43;;;2.88;;
14076;SDS011;7114;51.100;13.998;2023-06-01T12:10:42;5.95;;;3.00;;
14076;SDS011;7114;51.100;13.998;2023-06-01T12:13:09;7.43;;;2.90;;
14076;SDS011;7114;51.100;13.998;2023-06-01T12:15:37;6.55;;;3.30;;
14076;SDS011;7114;51.100;13.998;2023-06-01T12:18:04;6.80;;;3.70;;
14076;SDS011;7114;51.100;13.998;2023-06-01T12:20:31;6.07;;;3.28;;
14076;SDS011;7114;51.100;13.998;2023-06-01T12:22:58;8.88;;;3.75;;
14076;SDS011;7114;51.100;13.998;2023-06-01T12:25:28;7.38;;;3.50;;
14076;SDS011;7114;51.100;13.998;2023-06-01T12:28:01;7.88;;;3.45;;
14076;SDS011;7114;51.100;13.998;2023-06-01T12:30:28;6.73;;;2.97;;
14076;SDS011;7114;51.100;13.998;2023-06-01T12:32:54;7.33;;;3.20;;
14076;SDS011;7114;51.100;13.998;2023-06-01T12:35:20;6.72;;;3.40;;
14076;SDS011;7114;51.100;13.998;2023-06-01T12:38:01;8.15;;;3.72;;
14076;SDS011;7114;51.100;13.998;2023-06-01T12:40:28;7.22;;;3.05;;
14076;SDS011;7114;51.100;13.998;2023-06-01T12:42:55;6.90;;;3.42;;
14076;SDS011;7114;51.100;13.998;2023-06-01T12:45:22;7.50;;;3.50;;
14076;SDS011;7114;51.100;13.998;2023-06-01T12:47:49;7.03;;;3.47;;
14076;SDS011;7114;51.100;13.998;2023-06-01T12:50:15;8.40;;;3.78;;
14076;SDS011;7114;51.100;13.998;2023-06-01T12:52:41;7.88;;;4.07;;
14076;SDS011;7114;51.100;13.998;2023-06-01T12:55:08;7.03;;;3.53;;
14076;SDS011;7114;51.100;13.998;2023-06-01T12:57:35;6.35;;;3.25;;
14076;SDS011;7114;51.100;13.998;2023-06-01T13:00:02;7.87;;;4.00;;
14076;SDS011;7114;51.100;13.998;2023-06-01T13:02:31;7.93;;;4.23;;
14076;SDS011;7114;51.100;13.998;2023-06-01T13:04:58;7.82;;;4.20;;
14076;SDS011;7114;51.100;13.998;2023-06-01T13:07:24;8.73;;;4.88;;
14076;SDS011;7114;51.100;13.998;2023-06-01T13:09:51;7.60;;;4.40;;
14076;SDS011;7114;51.100;13.998;2023-06-01T13:12:17;8.55;;;5.10;;
14076;SDS011;7114;51.100;13.998;2023-06-01T13:14:44;8.70;;;5.07;;
14076;SDS011;7114;51.100;13.998;2023-06-01T13:17:11;9.93;;;4.70;;
14076;SDS011;7114;51.100;13.998;2023-06-01T13:19:39;7.53;;;4.63;;
14076;SDS011;7114;51.100;13.998;2023-06-01T13:22:05;10.48;;;4.90;;
14076;SDS011;7114;51.100;13.998;2023-06-01T13:24:32;9.07;;;4.72;;
14076;SDS011;7114;51.100;13.998;2023-06-01T13:26:58;8.35;;;4.80;;
14076;SDS011;7114;51.100;13.998;2023-06-01T13:29:25;8.23;;;4.80;;
14076;SDS011;7114;51.100;13.998;2023-06-01T13:31:51;8.45;;;4.68;;
14076;SDS011;7114;51.100;13.998;2023-06-01T13:34:17;8.70;;;4.75;;
14076;SDS011;7114;51.100;13.998;2023-06-01T13:36:47;8.18;;;4.40;;
14076;SDS011;7114;51.100;13.998;2023-06-01T13:39:14;7.43;;;4.47;;
14076;SDS011;7114;51.100;13.998;2023-06-01T13:41:40;8.10;;;4.60;;
14076;SDS011;7114;51.100;13.998;2023-06-01T13:44:06;8.27;;;4.63;;
14076;SDS011;7114;51.100;13.998;2023-06-01T13:46:33;8.68;;;4.60;;
14076;SDS011;7114;51.100;13.998;2023-06-01T13:48:59;7.28;;;4.45;;
14076;SDS011;7114;51.100;13.998;2023-06-01T13:51:25;7.82;;;4.45;;
14076;SDS011;7114;51.100;13.998;2023-06-01T13:53:54;8.02;;;4.93;;
14076;SDS011;7114;51.100;13.998;2023-06-01T13:56:20;7.03;;;3.83;;
14076;SDS011;7114;51.100;13.998;2023-06-01T13:58:48;8.30;;;4.57;;
14076;SDS011;7114;51.100;13.998;2023-06-01T14:01:15;7.63;;;4.10;;
14076;SDS011;7114;51.100;13.998;2023-06-01T14:03:41;10.75;;;4.10;;
14076;SDS011;7114;51.100;13.998;2023-06-01T14:06:07;7.50;;;4.35;;
14076;SDS011;7114;51.100;13.998;2023-06-01T14:08:33;8.00;;;4.18;;
14076;SDS011;7114;51.100;13.998;2023-06-01T14:11:01;9.33;;;4.63;;
14076;SDS011;7114;51.100;13.998;2023-06-01T14:13:27;9.97;;;4.60;;
14076;SDS011;7114;51.100;13.998;2023-06-01T14:15:53;7.57;;;4.38;;
14076;SDS011;7114;51.100;13.998;2023-06-01T14:18:20;8.60;;;4.45;;
14076;SDS011;7114;51.100;13.998;2023-06-01T14:20:46;8.43;;;4.05;;
14076;SDS011;7114;51.100;13.998;2023-06-01T14:23:13;10.23;;;4.82;;
14076;SDS011;7114;51.100;13.998;2023-06-01T14:25:40;8.20;;;5.00;;
14076;SDS011;7114;51.100;13.998;2023-06-01T14:28:07;8.37;;;4.40;;
14076;SDS011;7114;51.100;13.998;2023-06-01T14:30:34;7.25;;;3.90;;
14076;SDS011;7114;51.100;13.998;2023-06-01T14:33:00;9.05;;;4.55;;
14076;SDS011;7114;51.100;13.998;2023-06-01T14:35:26;7.13;;;4.00;;
14076;SDS011;7114;51.100;13.998;2023-06-01T14:37:53;7.95;;;4.10;;
14076;SDS011;7114;51.100;13.998;2023-06-01T14:40:20;8.43;;;4.03;;
14076;SDS011;7114;51.100;13.998;2023-06-01T14:42:47;7.30;;;4.00;;
14076;SDS011;7114;51.100;13.998;2023-06-01T14:45:14;6.32;;;3.35;;
14076;SDS011;7114;51.100;13.998;2023-06-01T14:47:43;7.85;;;4.07;;
14076;SDS011;7114;51.100;13.998;2023-06-01T14:50:10;6.47;;;3.38;;
14076;SDS011;7114;51.100;13.998;2023-06-01T14:52:36;7.90;;;3.80;;
14076;SDS011;7114;51.100;13.998;2023-06-01T14:55:03;7.80;;;3.50;;
14076;SDS011;7114;51.100;13.998;2023-06-01T14:57:29;6.10;;;3.07;;
14076;SDS011;7114;51.100;13.998;2023-06-01T14:59:56;6.45;;;3.35;;
14076;SDS011;7114;51.100;13.998;2023-06-01T15:02:23;6.45;;;3.10;;
14076;SDS011;7114;51.100;13.998;2023-06-01T15:04:50;5.72;;;2.70;;
14076;SDS011;7114;51.100;13.998;2023-06-01T15:07:16;6.80;;;2.83;;